Time;durP1;ratioP1;P1;durP2;ratioP2;P2;SDS_P1;SDS_P2;PMS_P1;PMS_P2;Temp;Humidity;BMP_temperature;BMP_pressure;BME280_temperature;BME280_humidity;BME280_pressure;Samples;Min_cycle;Max_cycle;Signal;HPM_P1;HPM_P2
2022/02/01 00:10:04;;;;;;;0.75;0.50;;;16.70;29.40;16.90;94009.00;;;;10356591;28;45234;-73
2022/02/01 00:15:52;;;;;;;1.05;0.40;;;16.70;30.00;16.90;94043.00;;;;10358992;28;47314;-72
2022/02/01 00:36:36;;;;;;;0.20;0.20;;;16.70;29.30;16.80;94011.00;;;;10327772;22;45161;-72
2022/02/01 00:41:42;;;;;;;0.65;0.28;;;16.60;29.20;16.80;94025.00;;;;10314630;28;47235;-72
2022/02/01 00:46:44;;;;;;;0.90;0.23;;;16.60;29.30;16.80;94031.00;;;;10278351;28;46357;-71
2022/02/01 00:51:44;;;;;;;1.10;0.30;;;16.60;29.30;16.70;94042.00;;;;10273820;28;46882;-72
2022/02/01 00:56:45;;;;;;;1.52;0.52;;;16.50;29.30;16.70;94013.00;;;;10273167;28;47216;-71
2022/02/01 01:01:46;;;;;;;1.52;0.50;;;16.50;29.40;16.70;94032.00;;;;10273943;28;45304;-72
2022/02/01 01:06:47;;;;;;;1.77;0.50;;;16.50;29.40;16.70;94039.00;;;;10272769;28;47364;-72
2022/02/01 01:11:52;;;;;;;1.25;0.45;;;16.50;29.40;16.80;94049.00;;;;10273470;28;45373;-72
2022/02/01 01:43:42;;;;;;;2.17;0.70;;;16.60;29.40;16.70;94079.00;;;;10281812;28;45211;-72
2022/02/01 01:54:03;;;;;;;1.27;0.43;;;16.60;29.40;16.80;94039.00;;;;10279237;28;45198;-72
2022/02/01 01:59:06;;;;;;;1.70;0.55;;;16.60;29.40;16.80;94054.00;;;;10277991;28;45330;-71
2022/02/01 02:04:08;;;;;;;1.52;0.60;;;16.60;29.40;16.80;94062.00;;;;10277386;28;45632;-72
2022/02/01 02:09:11;;;;;;;3.53;0.60;;;16.60;29.40;16.80;94073.00;;;;10278770;28;45431;-72
2022/02/01 02:14:20;;;;;;;1.17;0.57;;;16.70;29.40;16.80;94080.00;;;;10278298;28;45584;-72
2022/02/01 02:19:23;;;;;;;0.63;0.30;;;16.70;29.30;16.90;94101.00;;;;10278405;28;47432;-72
2022/02/01 02:24:31;;;;;;;1.33;0.40;;;16.70;29.40;16.90;94130.00;;;;10316842;28;45869;-71
2022/02/01 02:29:32;;;;;;;0.98;0.40;;;16.80;29.40;16.90;94121.00;;;;10302157;28;47100;-71
2022/02/01 02:34:32;;;;;;;0.98;0.40;;;16.80;29.30;16.90;94109.00;;;;10317033;28;45387;-72
2022/02/01 02:39:45;;;;;;;2.10;0.50;;;16.80;29.30;16.90;94085.00;;;;10318591;28;46389;-71
2022/02/01 02:45:09;;;;;;;1.10;0.40;;;16.80;29.20;16.90;94109.00;;;;10303049;28;47913;-72
2022/02/01 02:50:09;;;;;;;1.48;0.47;;;16.80;29.20;16.90;94118.00;;;;10319458;28;45221;-71
2022/02/01 02:55:10;;;;;;;2.03;0.60;;;16.80;29.10;16.90;94132.00;;;;10318592;28;46407;-71
2022/02/01 03:00:11;;;;;;;1.88;0.60;;;16.80;29.10;16.90;94136.00;;;;10318037;28;45193;-72
2022/02/01 03:05:12;;;;;;;1.65;0.63;;;16.80;29.00;16.90;94125.00;;;;10317601;28;45318;-72
2022/02/01 03:10:13;;;;;;;1.70;0.65;;;16.80;28.90;16.90;94164.00;;;;10301154;28;47309;-72
2022/02/01 03:20:30;;;;;;;2.63;0.80;;;16.80;28.90;16.90;94193.00;;;;10318399;28;45202;-72
2022/02/01 03:25:31;;;;;;;2.60;0.90;;;16.80;28.90;16.90;94171.00;;;;10299909;28;47458;-72
2022/02/01 03:30:32;;;;;;;2.90;0.80;;;16.80;28.90;16.90;94180.00;;;;10317118;28;46147;-71
2022/02/01 03:35:33;;;;;;;2.30;0.70;;;16.80;28.80;16.90;94211.00;;;;10299718;28;47045;-72
2022/02/01 03:40:33;;;;;;;2.58;0.80;;;16.80;28.80;16.90;94181.00;;;;10299973;28;47352;-72
2022/02/01 03:45:34;;;;;;;2.70;0.80;;;16.80;28.80;16.90;94183.00;;;;10315822;28;45325;-72
2022/02/01 03:50:35;;;;;;;2.13;0.82;;;16.80;28.80;16.90;94201.00;;;;10299943;28;47350;-72
2022/02/01 03:55:36;;;;;;;2.58;0.80;;;16.80;28.90;16.90;94208.00;;;;10316502;28;45165;-71
2022/02/01 04:00:37;;;;;;;3.17;0.90;;;16.80;28.70;16.90;94222.00;;;;10299625;28;47018;-72
2022/02/01 04:05:38;;;;;;;2.35;0.90;;;16.80;28.80;16.90;94223.00;;;;10315697;28;45243;-71
2022/02/01 04:10:38;;;;;;;5.30;0.88;;;16.80;28.80;16.90;94250.00;;;;10298982;28;47216;-72
2022/02/01 04:15:39;;;;;;;2.60;0.65;;;16.80;28.70;16.90;94231.00;;;;10315052;28;45172;-71
2022/02/01 04:20:40;;;;;;;1.80;0.80;;;16.70;28.70;16.90;94221.00;;;;10315312;28;45292;-72
2022/02/01 04:25:41;;;;;;;3.40;0.70;;;16.70;28.70;16.90;94241.00;;;;10315752;28;45265;-71
2022/02/01 04:30:41;;;;;;;3.08;0.70;;;16.70;28.60;16.90;94222.00;;;;10314975;28;45374;-71
2022/02/01 04:35:42;;;;;;;2.45;0.90;;;16.70;28.70;16.80;94236.00;;;;10297334;28;47979;-71
2022/02/01 04:40:43;;;;;;;2.22;0.88;;;16.70;28.70;16.80;94241.00;;;;10314410;28;47292;-72
2022/02/01 04:45:43;;;;;;;1.70;0.70;;;16.70;28.80;16.80;94244.00;;;;10297598;28;47373;-71
2022/02/01 04:50:44;;;;;;;2.13;0.70;;;16.70;28.80;16.80;94277.00;;;;10314117;28;48633;-72
2022/02/01 05:00:49;;;;;;;3.40;0.80;;;16.70;28.80;16.80;94281.00;;;;10313829;28;45165;-71
2022/02/01 05:05:50;;;;;;;2.47;0.82;;;16.70;28.80;16.80;94311.00;;;;10313509;28;47528;-71
2022/02/01 05:10:51;;;;;;;2.15;1.00;;;16.60;28.80;16.80;94325.00;;;;10297718;28;47028;-72
2022/02/01 05:16:18;;;;;;;2.30;0.80;;;16.70;28.90;16.80;94282.00;;;;10296590;28;48586;-72
2022/02/01 05:21:21;;;;;;;2.75;0.80;;;16.60;28.80;16.80;94278.00;;;;10312603;28;45506;-71
2022/02/01 05:26:24;;;;;;;2.72;0.70;;;16.60;28.80;16.80;94324.00;;;;10297258;28;47263;-72
2022/02/01 05:31:25;;;;;;;2.67;0.65;;;16.60;28.90;16.80;94317.00;;;;10296899;28;47205;-71
2022/02/01 05:36:26;;;;;;;1.63;0.70;;;16.60;28.80;16.70;94308.00;;;;10295696;28;47039;-72
2022/02/01 05:41:27;;;;;;;3.53;0.80;;;16.60;28.80;16.70;94329.00;;;;10313134;28;45186;-71
2022/02/01 05:46:28;;;;;;;2.80;0.68;;;16.50;28.80;16.70;94327.00;;;;10296328;28;47404;-72
2022/02/01 05:51:29;;;;;;;1.73;0.60;;;16.50;28.90;16.70;94284.00;;;;10314025;28;45473;-71
2022/02/01 05:56:30;;;;;;;2.13;0.60;;;16.60;28.90;16.70;94331.00;;;;10295884;28;47237;-71
2022/02/01 06:01:31;;;;;;;1.73;0.47;;;16.60;29.00;16.70;94330.00;;;;10296425;28;47114;-72
2022/02/01 06:06:32;;;;;;;2.22;0.68;;;16.60;29.00;16.70;94343.00;;;;10296709;28;46962;-72
2022/02/01 06:11:32;;;;;;;1.25;0.52;;;16.60;29.00;16.80;94347.00;;;;10303107;28;47345;-72
2022/02/01 06:16:33;;;;;;;3.47;0.90;;;16.60;28.90;16.80;94355.00;;;;10318094;28;48036;-72
2022/02/01 06:21:34;;;;;;;2.38;0.63;;;16.70;29.00;16.90;94360.00;;;;10302249;28;47224;-71
2022/02/01 06:26:35;;;;;;;2.92;0.85;;;16.70;28.90;16.90;94338.00;;;;10302208;28;47081;-72
2022/02/01 06:31:36;;;;;;;1.38;0.50;;;16.80;28.80;16.90;94357.00;;;;10318812;28;45315;-71
2022/02/01 06:36:36;;;;;;;3.15;0.90;;;16.90;28.80;16.90;94370.00;;;;10317838;28;45316;-72
2022/02/01 06:41:38;;;;;;;3.08;0.88;;;16.80;28.80;16.90;94370.00;;;;10318616;28;45486;-71
2022/02/01 06:46:38;;;;;;;3.20;0.82;;;16.80;28.80;16.90;94370.00;;;;10318145;28;47214;-71
2022/02/01 06:51:42;;;;;;;2.85;0.90;;;16.80;28.70;16.90;94388.00;;;;10294288;28;47232;-71
2022/02/01 06:56:44;;;;;;;3.80;1.08;;;16.80;28.70;16.90;94398.00;;;;10317449;28;46995;-71
2022/02/01 07:01:45;;;;;;;3.33;0.80;;;16.80;28.60;16.90;94393.00;;;;10318516;28;45402;-72
2022/02/01 07:06:45;;;;;;;2.53;0.75;;;16.80;28.50;16.90;94398.00;;;;10301061;28;47245;-71
2022/02/01 07:11:46;;;;;;;4.28;1.00;;;16.80;28.60;16.90;94414.00;;;;10317960;28;46359;-72
2022/02/01 07:16:46;;;;;;;3.13;0.90;;;16.80;28.60;16.90;94419.00;;;;10316637;28;48229;-71
2022/02/01 07:21:48;;;;;;;2.75;0.70;;;16.80;28.50;16.90;94429.00;;;;10316441;28;47243;-72
2022/02/01 07:26:55;;;;;;;4.15;1.05;;;16.80;28.50;16.90;94436.00;;;;10300726;28;47290;-71
2022/02/01 07:31:56;;;;;;;;;;;16.80;28.40;16.90;94448.00;;;;10313538;28;45462;-72
2022/02/01 07:36:56;;;;;;;2.80;0.45;;;16.80;28.40;16.90;94452.00;;;;10311966;28;48193;-72
2022/02/01 07:41:57;;;;;;;2.88;0.80;;;16.80;28.40;16.90;94420.00;;;;10316976;28;45625;-71
2022/02/01 07:46:58;;;;;;;4.60;0.80;;;16.80;28.60;16.80;94404.00;;;;10316543;28;45481;-71
2022/02/01 07:51:59;;;;;;;3.10;1.00;;;16.70;28.30;16.80;94412.00;;;;10300101;28;47756;-72
2022/02/01 07:57:00;;;;;;;3.55;0.75;;;16.70;28.30;16.80;94416.00;;;;10315984;28;46326;-72
2022/02/01 08:02:01;;;;;;;2.22;0.65;;;16.70;28.20;16.80;94427.00;;;;10299668;28;47215;-71
2022/02/01 08:07:02;;;;;;;3.17;0.70;;;16.70;28.30;16.80;94406.00;;;;10298456;28;46865;-73
2022/02/01 08:12:12;;;;;;;1.42;0.45;;;16.70;28.20;16.80;94403.00;;;;10318697;28;45375;-72
2022/02/01 08:17:24;;;;;;;2.13;0.60;;;16.60;28.40;16.80;94404.00;;;;10315362;28;46097;-72
2022/02/01 08:22:49;;;;;;;1.77;0.70;;;16.60;28.50;16.80;94427.00;;;;10300388;28;47244;-72
2022/02/01 08:27:54;;;;;;;1.45;0.50;;;16.60;28.60;16.80;94421.00;;;;10314934;28;48140;-72
2022/02/01 08:32:54;;;;;;;2.80;0.50;;;16.70;28.70;16.80;94433.00;;;;10298515;28;46957;-73
2022/02/01 08:37:55;;;;;;;1.67;0.50;;;16.70;28.70;16.80;94444.00;;;;10313762;28;45322;-72
2022/02/01 08:42:59;;;;;;;2.22;0.60;;;16.70;28.70;16.90;94447.00;;;;10312064;28;45511;-72
2022/02/01 08:48:00;;;;;;;1.90;0.55;;;16.80;28.70;16.90;94438.00;;;;10314386;28;48170;-71
2022/02/01 08:58:24;;;;;;;2.08;0.40;;;16.80;28.60;16.90;94416.00;;;;10314662;28;45634;-71
2022/02/01 09:03:26;;;;;;;1.45;0.47;;;16.80;28.60;16.90;94455.00;;;;10314478;28;45346;-71
2022/02/01 09:08:27;;;;;;;1.30;0.63;;;16.80;28.60;16.90;94464.00;;;;10314368;28;45647;-71
2022/02/01 09:13:28;;;;;;;1.40;0.40;;;16.80;28.60;17.00;94464.00;;;;10313777;28;45459;-71
2022/02/01 09:18:28;;;;;;;1.25;0.50;;;16.90;28.50;17.00;94479.00;;;;10313985;28;46565;-71
2022/02/01 09:23:29;;;;;;;1.13;0.50;;;16.90;28.30;16.90;94477.00;;;;10314774;28;45278;-71
2022/02/01 09:28:30;;;;;;;1.58;0.50;;;16.90;28.20;17.00;94456.00;;;;10315048;28;45560;-71
2022/02/01 09:33:30;;;;;;;2.13;0.57;;;16.90;28.20;17.00;94472.00;;;;10311922;28;46686;-71
2022/02/01 09:38:32;;;;;;;1.65;0.68;;;17.00;28.20;17.00;94473.00;;;;10311911;28;45970;-71
2022/02/01 09:43:33;;;;;;;1.77;0.60;;;17.00;28.10;17.00;94471.00;;;;10299133;28;47570;-71
2022/02/01 09:48:34;;;;;;;2.20;0.85;;;17.00;28.00;17.00;94466.00;;;;10301943;28;47169;-71
2022/02/01 09:53:36;;;;;;;2.80;0.70;;;16.90;27.90;17.00;94480.00;;;;10302260;28;46985;-71
2022/02/01 09:58:40;;;;;;;3.38;0.77;;;16.90;27.90;17.00;94467.00;;;;10318636;28;45192;-71
2022/02/01 10:03:41;;;;;;;2.53;0.73;;;16.90;27.90;17.00;94477.00;;;;10319198;28;45397;-71
2022/02/01 10:08:46;;;;;;;2.42;0.77;;;16.90;27.90;17.00;94468.00;;;;10302003;28;46551;-72
2022/02/01 10:13:55;;;;;;;3.00;0.80;;;17.00;27.90;17.00;94466.00;;;;10318228;28;46333;-71
2022/02/01 10:19:07;;;;;;;4.35;0.95;;;17.00;27.90;17.00;94462.00;;;;10318224;28;46342;-71
2022/02/01 10:24:08;;;;;;;2.75;0.70;;;16.90;27.80;17.00;94464.00;;;;10317436;28;46304;-71
2022/02/01 10:29:20;;;;;;;4.35;0.85;;;16.90;27.90;17.00;94457.00;;;;10317647;28;45388;-71
2022/02/01 10:39:37;;;;;;;2.05;0.60;;;16.90;27.90;17.00;94484.00;;;;10317549;28;45194;-71
2022/02/01 10:44:54;;;;;;;2.58;0.65;;;16.90;27.80;17.00;94490.00;;;;10316396;28;47236;-70
2022/02/01 10:49:54;;;;;;;1.33;0.50;;;16.90;27.90;16.90;94481.00;;;;10301213;28;46725;-72
2022/02/01 10:54:55;;;;;;;3.20;0.80;;;16.90;27.80;17.00;94494.00;;;;10299032;28;48493;-71
2022/02/01 10:59:56;;;;;;;2.83;0.60;;;16.90;27.90;17.00;94470.00;;;;10300229;28;47110;-71
2022/02/01 11:04:59;;;;;;;3.33;0.70;;;16.90;27.90;16.90;94479.00;;;;10316391;28;45202;-71
2022/02/01 11:10:00;;;;;;;2.33;0.60;;;16.90;28.50;17.00;94467.00;;;;10300015;28;47246;-71
2022/02/01 11:15:00;;;;;;;2.40;0.60;;;16.90;28.00;17.00;94461.00;;;;10317008;28;45327;-70
2022/02/01 11:20:01;;;;;;;3.83;0.90;;;16.90;28.00;17.00;94464.00;;;;10315071;28;47469;-71
2022/02/01 11:25:25;;;;;;;2.35;0.70;;;16.90;28.00;16.90;94454.00;;;;10314866;28;45214;-71
2022/02/01 11:30:45;;;;;;;2.65;0.60;;;16.90;28.00;16.90;94421.00;;;;10298768;28;48258;-71
2022/02/01 11:35:58;;;;;;;3.13;0.82;;;16.80;27.80;16.90;94428.00;;;;10312312;28;45583;-71
2022/02/01 11:41:06;;;;;;;2.05;0.73;;;16.80;27.90;16.90;94424.00;;;;10313753;28;45573;-71
2022/02/01 11:46:10;;;;;;;3.95;0.90;;;16.80;27.90;16.90;94402.00;;;;10298024;28;47310;-72
2022/02/01 11:51:13;;;;;;;2.28;0.80;;;16.90;28.00;16.90;94396.00;;;;10314181;28;45252;-71
2022/02/01 11:56:17;;;;;;;2.53;0.80;;;16.90;28.00;16.90;94394.00;;;;10297908;28;46514;-72
2022/02/01 12:01:37;;;;;;;2.45;0.60;;;16.90;28.00;17.00;94380.00;;;;10314795;28;45314;-74
2022/02/01 12:06:45;;;;;;;1.95;0.70;;;16.90;28.00;17.00;94386.00;;;;10313909;28;45566;-72
2022/02/01 12:11:54;;;;;;;3.10;0.65;;;16.90;28.00;17.00;94394.00;;;;10297694;28;48143;-71
2022/02/01 12:16:56;;;;;;;2.05;0.47;;;17.00;28.00;17.10;94376.00;;;;10298320;28;47113;-73
2022/02/01 12:22:49;;;;;;;1.65;0.47;;;17.00;28.30;17.10;94353.00;;;;10297585;28;47001;-77
2022/02/01 12:27:50;;;;;;;2.60;0.50;;;17.00;28.40;17.10;94357.00;;;;10311670;28;45434;-77
2022/02/01 12:32:52;;;;;;;1.83;0.50;;;17.00;28.30;17.10;94350.00;;;;10277111;28;45206;-74
2022/02/01 12:38:04;;;;;;;1.35;0.30;;;17.10;28.20;17.10;94311.00;;;;10271273;28;45199;-76
2022/02/01 12:43:16;;;;;;;1.88;0.60;;;17.10;28.10;17.10;94304.00;;;;10252111;28;47413;-76
2022/02/01 12:48:18;;;;;;;1.75;0.40;;;17.10;28.00;17.10;94302.00;;;;10278380;28;47074;-74
2022/02/01 12:53:19;;;;;;;1.63;0.70;;;17.10;28.00;17.10;94288.00;;;;10271881;28;47904;-75
2022/02/01 12:58:20;;;;;;;3.20;0.60;;;17.10;27.90;17.10;94264.00;;;;10255678;28;46052;-75
2022/02/01 13:03:22;;;;;;;1.55;0.50;;;17.00;27.90;17.00;94260.00;;;;10268607;28;46086;-74
2022/02/01 13:23:54;;;;;;;2.10;0.50;;;17.00;27.80;17.00;94207.00;;;;10327064;28;45110;-74
2022/02/01 13:29:07;;;;;;;6.38;2.92;;;17.00;27.80;17.00;94200.00;;;;10294797;28;47229;-78
2022/02/01 13:34:13;;;;;;;5.72;2.15;;;17.00;27.80;17.00;94184.00;;;;10294341;28;48508;-74
2022/02/01 13:39:38;;;;;;;3.67;1.63;;;17.00;27.90;17.00;94172.00;;;;10295060;28;47925;-75
2022/02/01 13:44:39;;;;;;;4.03;1.15;;;17.00;28.40;17.00;94171.00;;;;10310706;28;46299;-74
2022/02/01 13:49:39;;;;;;;3.42;0.95;;;17.00;27.80;17.00;94151.00;;;;10292621;28;47540;-75
2022/02/01 13:54:45;;;;;;;3.83;0.75;;;17.00;27.90;17.00;94129.00;;;;10290451;28;47164;-75
2022/02/01 13:59:48;;;;;;;2.78;0.60;;;17.00;27.90;17.00;94142.00;;;;10295326;28;46825;-74
2022/02/01 14:05:04;;;;;;;2.22;0.60;;;17.00;27.90;17.00;94112.00;;;;10294004;28;47503;-74
2022/02/01 14:10:19;;;;;;;1.93;0.57;;;17.00;28.00;17.00;94128.00;;;;10295758;28;47196;-74
2022/02/01 14:26:26;;;;;;;2.60;0.75;;;16.90;28.90;17.00;94110.00;;;;10311403;28;45057;-74
2022/02/01 14:36:44;;;;;;;2.60;0.52;;;16.90;28.70;17.00;94075.00;;;;10305413;28;45221;-71
2022/02/01 14:47:14;;;;;;;1.20;0.55;;;17.00;28.50;17.00;94120.00;;;;10307117;28;45246;-70
2022/02/01 14:52:17;;;;;;;1.83;0.55;;;17.00;28.40;17.00;94092.00;;;;10275483;28;45215;-71
2022/02/01 15:13:08;;;;;;;1.63;0.40;;;17.00;28.20;17.00;94088.00;;;;10315918;28;45218;-72
2022/02/01 15:18:09;;;;;;;3.05;0.50;;;17.00;28.10;17.00;94079.00;;;;10313973;28;48288;-74
2022/02/01 15:23:09;;;;;;;2.42;0.40;;;17.00;29.20;17.10;94061.00;;;;10312618;28;47402;-72
2022/02/01 15:28:11;;;;;;;1.52;0.50;;;17.00;28.90;17.10;94057.00;;;;10297105;28;46999;-72
2022/02/01 15:33:14;;;;;;;4.03;0.73;;;17.00;28.80;17.10;94076.00;;;;10295295;28;47474;-72
2022/02/01 15:38:17;;;;;;;1.50;0.50;;;17.00;28.80;17.10;94085.00;;;;10296453;28;47757;-73
2022/02/01 15:58:48;;;;;;;1.98;0.60;;;17.20;28.60;17.20;94065.00;;;;10317530;28;45204;-72
2022/02/01 16:03:50;;;;;;;1.48;0.60;;;17.20;28.40;17.10;94081.00;;;;10262319;28;45353;-72
2022/02/01 16:08:52;;;;;;;1.65;0.30;;;17.20;28.30;17.10;94066.00;;;;10272019;28;46160;-74
2022/02/01 16:13:59;;;;;;;1.58;0.40;;;17.20;28.20;17.10;94085.00;;;;10255456;28;48215;-72
2022/02/01 16:19:01;;;;;;;0.77;0.30;;;17.10;28.40;17.10;94070.00;;;;10270922;28;47042;-72
2022/02/01 16:24:03;;;;;;;1.88;0.60;;;17.10;28.40;17.00;94084.00;;;;10290224;28;47373;-71
2022/02/01 16:29:04;;;;;;;2.08;0.60;;;17.00;28.50;17.10;94068.00;;;;10311128;28;47181;-71
2022/02/01 16:34:06;;;;;;;1.70;0.63;;;17.00;28.80;17.10;94047.00;;;;10287207;28;47148;-74
2022/02/01 16:39:10;;;;;;;1.45;0.50;;;17.00;29.10;17.10;94028.00;;;;10271313;28;46130;-75
2022/02/01 16:44:12;;;;;;;1.73;0.40;;;17.00;29.20;17.10;94014.00;;;;10255149;28;48483;-75
2022/02/01 16:49:13;;;;;;;1.17;0.47;;;17.00;29.30;17.10;94022.00;;;;10255031;28;47477;-75
2022/02/01 16:54:18;;;;;;;1.90;0.50;;;17.00;29.50;17.10;94032.00;;;;10269866;28;47010;-76
2022/02/01 16:59:23;;;;;;;1.83;0.60;;;17.00;29.60;17.10;94042.00;;;;10254672;28;47351;-77
2022/02/01 17:04:24;;;;;;;1.70;0.47;;;17.00;29.60;17.10;94024.00;;;;10269324;28;45424;-72
2022/02/01 17:09:27;;;;;;;0.55;0.30;;;17.10;29.40;17.10;93996.00;;;;10269326;28;47180;-72
2022/02/01 17:25:58;;;;;;;0.82;0.40;;;17.20;28.70;17.10;94004.00;;;;10272837;28;45413;-72
2022/02/01 17:31:22;;;;;;;0.70;0.45;;;17.10;28.60;17.10;93994.00;;;;10256118;28;46990;-72
2022/02/01 17:36:29;;;;;;;0.70;0.60;;;17.10;28.60;17.10;94009.00;;;;10254800;28;48031;-73
2022/02/01 17:41:31;;;;;;;0.80;0.70;;;17.10;28.60;17.10;93979.00;;;;10255455;28;48394;-72
2022/02/01 17:46:38;;;;;;;1.00;0.60;;;17.10;28.70;17.10;93967.00;;;;10272367;28;45318;-72
2022/02/01 17:56:50;;;;;;;1.45;0.70;;;17.00;28.80;17.00;93946.00;;;;10272815;28;45124;-72
2022/02/01 18:01:51;;;;;;;2.22;1.17;;;17.00;28.90;17.00;93961.00;;;;10254833;28;47057;-72
2022/02/01 18:06:54;;;;;;;0.90;0.75;;;17.00;29.00;17.00;93926.00;;;;10262894;28;46977;-73
2022/02/01 18:12:12;;;;;;;0.70;0.60;;;17.00;29.00;17.00;93935.00;;;;10280637;28;45262;-72
2022/02/01 18:17:22;;;;;;;0.40;0.32;;;17.00;29.20;17.00;93913.00;;;;10264360;28;47206;-73
2022/02/01 18:22:27;;;;;;;1.90;0.45;;;17.00;29.40;17.00;93910.00;;;;10283489;28;46953;-73
2022/02/01 18:27:31;;;;;;;0.50;0.30;;;17.00;29.40;17.10;93928.00;;;;10312388;28;45223;-73
2022/02/01 18:32:33;;;;;;;0.30;0.30;;;17.00;29.30;17.10;93910.00;;;;10319329;28;45173;-72
2022/02/01 18:37:36;;;;;;;0.77;0.30;;;17.00;29.40;17.10;93882.00;;;;10370960;23;47218;-73
2022/02/01 18:42:46;;;;;;;0.20;0.20;;;17.00;29.60;17.10;93901.00;;;;10361664;28;45264;-72
2022/02/01 18:48:04;;;;;;;0.20;0.20;;;17.00;29.40;17.10;93911.00;;;;10319945;28;46874;-73
2022/02/01 18:53:27;;;;;;;0.68;0.30;;;17.10;29.50;17.10;93912.00;;;;10315260;28;45411;-74
2022/02/01 18:58:30;;;;;;;0.35;0.20;;;17.10;29.80;17.10;93911.00;;;;10330308;28;46165;-74
2022/02/01 19:04:05;;;;;;;0.10;0.10;;;17.10;30.20;17.20;93931.00;;;;10356349;28;45306;-73
2022/02/01 19:09:21;;;;;;;0.28;0.10;;;17.20;30.10;17.20;93945.00;;;;10321139;28;45696;-73
2022/02/01 19:14:24;;;;;;;0.10;0.10;;;17.20;30.00;17.20;93912.00;;;;10299111;28;47505;-73
2022/02/01 19:19:24;;;;;;;0.10;0.00;;;17.20;29.90;17.20;93932.00;;;;10298444;28;48005;-73
2022/02/01 19:24:28;;;;;;;1.10;0.65;;;17.20;29.70;17.20;93920.00;;;;10336899;28;46561;-73
2022/02/01 19:29:29;;;;;;;0.77;0.40;;;17.20;29.80;17.20;93912.00;;;;10339167;28;47447;-73
2022/02/01 19:34:33;;;;;;;0.40;0.30;;;17.20;29.70;17.20;93914.00;;;;10354769;28;46083;-73
2022/02/01 19:39:34;;;;;;;0.73;0.50;;;17.20;29.60;17.10;93915.00;;;;10341969;28;47981;-73
2022/02/01 19:49:38;;;;;;;0.32;0.20;;;17.20;29.70;17.10;93924.00;;;;10371859;28;46145;-73
2022/02/01 19:54:38;;;;;;;0.10;0.10;;;17.10;29.50;17.10;93946.00;;;;10337763;28;47216;-73
2022/02/01 19:59:43;;;;;;;0.28;0.10;;;17.10;29.50;17.10;93940.00;;;;10354614;28;45253;-73
2022/02/01 20:04:44;;;;;;;0.30;0.00;;;17.10;29.50;17.10;93926.00;;;;10353419;28;45249;-73
2022/02/01 20:09:56;;;;;;;0.10;0.00;;;17.10;29.60;17.10;93923.00;;;;10354398;28;45507;-73
2022/02/01 20:14:58;;;;;;;0.00;0.00;;;17.10;29.70;17.10;93936.00;;;;10338158;28;47206;-73
2022/02/01 20:19:59;;;;;;;0.13;0.00;;;17.00;29.80;17.10;93960.00;;;;10334782;28;47464;-73
2022/02/01 20:25:00;;;;;;;0.10;0.10;;;17.00;29.80;17.10;93940.00;;;;10312624;28;45296;-73
2022/02/01 20:30:03;;;;;;;0.00;0.00;;;17.00;29.80;17.00;93982.00;;;;10312696;28;47421;-73
2022/02/01 20:35:07;;;;;;;0.20;0.00;;;17.00;29.90;17.00;94007.00;;;;10312183;28;45226;-73
2022/02/01 20:40:11;;;;;;;0.10;0.00;;;17.00;29.90;17.00;94004.00;;;;10296373;28;48292;-73
2022/02/01 20:45:12;;;;;;;0.00;0.00;;;17.00;29.80;17.00;93990.00;;;;10311242;28;47467;-73
2022/02/01 20:50:13;;;;;;;0.00;0.00;;;17.00;29.90;17.00;93985.00;;;;10295450;28;47160;-72
2022/02/01 20:55:14;;;;;;;0.00;0.00;;;16.90;29.90;17.00;93994.00;;;;10312617;28;46447;-73
2022/02/01 21:00:16;;;;;;;0.00;0.00;;;16.90;29.90;17.00;93966.00;;;;10312020;28;46486;-73
2022/02/01 21:05:17;;;;;;;0.00;0.00;;;16.90;30.00;17.00;93978.00;;;;10310719;28;47272;-73
2022/02/01 21:10:21;;;;;;;0.05;0.00;;;16.90;30.60;16.90;94002.00;;;;10295222;28;47244;-73
2022/02/01 21:15:22;;;;;;;0.00;0.00;;;16.90;30.00;16.90;93993.00;;;;10310890;28;47163;-73
2022/02/01 21:20:23;;;;;;;0.20;0.03;;;16.90;30.00;16.90;93988.00;;;;10317293;28;45609;-73
2022/02/01 21:25:24;;;;;;;0.00;0.00;;;16.80;30.00;16.90;93966.00;;;;10348335;28;45181;-72
2022/02/01 21:30:25;;;;;;;0.00;0.00;;;16.80;30.00;16.90;93954.00;;;;10333023;28;46883;-73
2022/02/01 21:35:27;;;;;;;0.00;0.00;;;16.80;30.00;16.90;93939.00;;;;10351191;28;48090;-73
2022/02/01 21:40:29;;;;;;;0.00;0.00;;;16.80;30.20;16.80;93940.00;;;;10341082;28;47073;-73
2022/02/01 21:45:30;;;;;;;0.00;0.00;;;16.70;30.20;16.80;93945.00;;;;10359810;28;46916;-73
2022/02/01 21:50:31;;;;;;;0.08;0.00;;;16.70;30.30;16.80;93921.00;;;;10341941;28;47341;-73
2022/02/01 21:55:31;;;;;;;0.00;0.00;;;16.70;30.40;16.80;93926.00;;;;10341435;28;47240;-73
2022/02/01 22:00:33;;;;;;;0.00;0.00;;;16.60;30.40;16.80;93969.00;;;;10342003;28;46830;-73
2022/02/01 22:05:33;;;;;;;0.00;0.00;;;16.60;30.40;16.80;93962.00;;;;10357608;28;47036;-73
2022/02/01 22:10:34;;;;;;;0.10;0.00;;;16.70;30.50;16.80;93942.00;;;;10341809;28;48290;-73
2022/02/01 22:15:35;;;;;;;0.00;0.00;;;16.70;30.70;16.80;93931.00;;;;10317539;28;45289;-73
2022/02/01 22:20:35;;;;;;;0.00;0.00;;;16.60;30.80;16.70;93909.00;;;;10308463;28;48504;-73
2022/02/01 22:25:36;;;;;;;0.00;0.00;;;16.60;30.80;16.70;93908.00;;;;10341046;28;47247;-72
2022/02/01 22:30:37;;;;;;;0.00;0.00;;;16.60;30.90;16.70;93904.00;;;;10359023;28;46760;-72
2022/02/01 22:35:40;;;;;;;0.00;0.00;;;16.50;30.90;16.70;93911.00;;;;10356392;28;46143;-72
2022/02/01 22:40:41;;;;;;;0.00;0.00;;;16.50;31.00;16.70;93940.00;;;;10341060;28;46976;-72
2022/02/01 22:45:43;;;;;;;0.15;0.15;;;16.50;31.10;16.60;93944.00;;;;10358586;28;45543;-72
2022/02/01 22:50:43;;;;;;;0.30;0.00;;;16.50;31.20;16.60;93929.00;;;;10356395;28;46375;-72
2022/02/01 22:55:44;;;;;;;0.10;0.00;;;16.50;31.20;16.60;93937.00;;;;10340015;28;46907;-72
2022/02/01 23:00:46;;;;;;;0.00;0.00;;;16.40;31.30;16.60;93961.00;;;;10355664;28;47801;-72
2022/02/01 23:05:55;;;;;;;0.10;0.10;;;16.40;31.30;16.60;93940.00;;;;10339704;28;47446;-73
2022/02/01 23:11:02;;;;;;;0.20;0.00;;;16.40;31.40;16.60;93931.00;;;;10340770;28;47144;-73
2022/02/01 23:21:17;;;;;;;0.00;0.00;;;16.40;31.40;16.60;93893.00;;;;10343100;28;45150;-72
2022/02/01 23:26:19;;;;;;;0.00;0.00;;;16.40;31.50;16.50;93932.00;;;;10314543;28;45239;-72
2022/02/01 23:31:21;;;;;;;0.00;0.00;;;16.40;31.50;16.50;93925.00;;;;10298840;28;47300;-72
2022/02/01 23:51:35;;;;;;;0.10;0.00;;;16.40;31.80;16.50;93937.00;;;;10315708;28;45217;-72
2022/02/01 23:56:44;;;;;;;0.00;0.00;;;16.30;31.80;16.50;93950.00;;;;10296987;28;46954;-71
